Terminal Aerodrome Forecast
Issued by NWS Cleveland, OH

Home | Current Version | Previous Version | Graphics & Text | Print | Product List | Glossary On
Versions: 1 2 3 4 5 6 7 8 9 10 11 12 13 14 15 16 17 18 19 20 21
000
FTUS41 KCLE 270900 AAA
TAFERI
TAF AMD
KERI 270956Z 2710/2806 29003KT P6SM SCT025
      TEMPO 2710/2713 BKN025
     FM271500 26008KT P6SM SCT030
     FM272300 21005KT P6SM SKC=

USA.gov is the U.S. government's official web portal to all federal, state and local government web resources and services.